createdAt,value
2019-02-28T00:00:42.384Z,52.39
2019-02-28T00:03:10.185Z,52.30
2019-02-28T00:05:56.519Z,52.53
2019-02-28T00:08:42.861Z,52.53
2019-02-28T00:11:10.633Z,52.75
2019-02-28T00:13:38.241Z,53.44
2019-02-28T00:16:06.143Z,53.22
2019-02-28T00:18:33.700Z,53.22
2019-02-28T00:21:06.008Z,53.14
2019-02-28T00:23:30.560Z,53.14
2019-02-28T00:25:58.344Z,53.34
2019-02-28T00:28:26.605Z,53.41
2019-02-28T00:30:54.169Z,53.24
2019-02-28T00:33:23.083Z,53.86
2019-02-28T00:36:09.469Z,53.58
2019-02-28T00:38:56.182Z,53.77
2019-02-28T00:41:24.154Z,53.77
2019-02-28T00:43:51.657Z,53.67
2019-02-28T00:46:44.059Z,54.05
2019-02-28T00:49:26.294Z,53.93
2019-02-28T00:52:12.703Z,53.93
2019-02-28T00:54:44.353Z,53.91
2019-02-28T00:57:09.683Z,53.95
2019-02-28T00:59:56.053Z,53.72
2019-02-28T01:02:23.673Z,53.72
2019-02-28T01:04:51.374Z,54.08
2019-02-28T01:07:37.814Z,54.11
2019-02-28T01:12:54.641Z,54.12
2019-02-28T01:15:44.865Z,54.14
2019-02-28T01:21:17.934Z,53.63
2019-02-28T01:26:38.859Z,53.76
2019-02-28T01:29:08.412Z,53.81
2019-02-28T01:32:15.327Z,53.89
2019-02-28T01:34:45.930Z,54.32
2019-02-28T01:37:13.569Z,54.43
2019-02-28T01:39:41.198Z,54.43
2019-02-28T01:42:27.531Z,54.14
2019-02-28T01:44:55.080Z,54.14
2019-02-28T01:47:41.410Z,54.47
2019-02-28T01:50:29.632Z,54.88
2019-02-28T01:52:56.976Z,54.88
2019-02-28T01:55:43.320Z,54.49
2019-02-28T01:58:10.940Z,54.53
2019-02-28T02:00:38.507Z,54.59
2019-02-28T02:03:24.875Z,54.22
2019-02-28T02:05:52.559Z,54.26
2019-02-28T02:08:39.115Z,54.63
2019-02-28T02:11:06.677Z,54.63
2019-02-28T02:13:36.921Z,54.69
2019-02-28T02:16:05.947Z,54.74
2019-02-28T02:18:35.956Z,54.72
2019-02-28T02:21:22.239Z,55.13
2019-02-28T02:24:08.580Z,55.13
2019-02-28T02:26:36.328Z,54.91
2019-02-28T02:31:50.324Z,54.95
2019-02-28T02:34:17.959Z,54.98
2019-02-28T02:36:52.942Z,55.03
2019-02-28T02:39:17.520Z,55.09
2019-02-28T02:41:44.747Z,55.15
2019-02-28T02:44:32.090Z,55.47
2019-02-28T02:47:19.173Z,55.58
2019-02-28T02:50:05.549Z,55.51
2019-02-28T02:52:51.977Z,55.29
2019-02-28T02:55:19.999Z,55.30
2019-02-28T02:58:06.468Z,55.95
2019-02-28T03:03:43.202Z,55.55
2019-02-28T03:06:14.046Z,55.55
2019-02-28T03:08:38.796Z,56.19
2019-02-28T03:11:06.419Z,55.87
2019-02-28T03:13:52.821Z,56.32
2019-02-28T03:16:39.123Z,56.44
2019-02-28T03:34:59.426Z,55.66
2019-02-28T03:37:32.848Z,55.66
2019-02-28T03:40:02.468Z,55.78
2019-02-28T03:42:28.864Z,55.77
2019-02-28T03:45:14.772Z,55.45
2019-02-28T03:47:42.370Z,55.45
2019-02-28T03:50:09.967Z,55.62
2019-02-28T03:52:41.671Z,55.37
2019-02-28T03:55:07.953Z,56.15
2019-02-28T03:57:35.611Z,56.15
2019-02-28T04:00:21.978Z,55.95
2019-02-28T04:03:08.422Z,56.57
2019-02-28T04:05:35.992Z,56.83
2019-02-28T04:08:29.209Z,56.83
2019-02-28T04:10:54.784Z,56.59
2019-02-28T04:13:20.974Z,56.46
2019-02-28T04:18:44.134Z,57.16
2019-02-28T04:21:10.254Z,57.16
2019-02-28T04:23:35.945Z,57.42
2019-02-28T04:26:04.534Z,57.03
2019-02-28T04:28:32.169Z,56.38
2019-02-28T04:31:01.052Z,56.38
2019-02-28T04:33:28.658Z,56.35
2019-02-28T04:35:56.889Z,55.23
2019-02-28T04:38:25.669Z,54.97
2019-02-28T04:40:53.412Z,54.72
2019-02-28T04:43:21.032Z,54.72
2019-02-28T04:45:48.624Z,55.31
2019-02-28T04:48:34.984Z,55.02
2019-02-28T04:51:05.742Z,55.02
2019-02-28T04:53:31.893Z,54.27
2019-02-28T04:56:18.285Z,54.27
2019-02-28T04:58:45.992Z,54.28
2019-02-28T05:01:32.676Z,53.67
2019-02-28T05:04:02.346Z,53.67
2019-02-28T05:06:29.624Z,53.90
2019-02-28T05:09:15.951Z,53.75
2019-02-28T05:11:43.472Z,53.70
2019-02-28T05:14:30.084Z,53.40
2019-02-28T05:16:57.742Z,53.40
2019-02-28T05:19:25.323Z,53.69
2019-02-28T05:22:11.688Z,53.76
2019-02-28T05:24:42.284Z,53.98
2019-02-28T05:27:08.694Z,54.06
2019-02-28T05:29:55.001Z,54.10
2019-02-28T05:32:22.734Z,54.10
2019-02-28T05:35:09.121Z,54.50
2019-02-28T05:37:36.700Z,54.57
2019-02-28T05:40:23.050Z,54.78
2019-02-28T05:42:50.955Z,55.31
2019-02-28T05:45:18.498Z,55.31
2019-02-28T05:50:25.419Z,54.83
2019-02-28T05:52:53.085Z,54.71
2019-02-28T05:55:39.528Z,54.74
2019-02-28T05:58:25.959Z,54.86
2019-02-28T06:00:53.642Z,54.86
2019-02-28T06:03:21.409Z,55.26
2019-02-28T06:05:49.241Z,55.40
2019-02-28T06:08:16.826Z,55.30
2019-02-28T06:10:44.355Z,55.30
2019-02-28T06:13:12.163Z,55.71
2019-02-28T06:15:39.685Z,55.89
2019-02-28T06:18:07.276Z,55.89
2019-02-28T06:20:38.108Z,56.24
2019-02-28T06:23:06.268Z,56.32
2019-02-28T06:25:34.834Z,56.56
2019-02-28T06:28:02.382Z,56.59
2019-02-28T06:30:32.161Z,56.70
2019-02-28T06:32:59.950Z,57.11
2019-02-28T06:35:27.447Z,56.56
2019-02-28T06:37:55.058Z,56.55
2019-02-28T06:40:23.971Z,56.60
2019-02-28T06:42:51.517Z,56.54
2019-02-28T06:45:19.115Z,56.77
2019-02-28T06:47:49.728Z,56.77
2019-02-28T06:50:21.081Z,57.74
2019-02-28T06:52:50.826Z,57.74
2019-02-28T06:55:24.210Z,57.41
2019-02-28T06:57:54.482Z,57.98
2019-02-28T07:00:22.083Z,58.22
2019-02-28T07:02:50.261Z,58.22
2019-02-28T07:05:17.891Z,57.94
2019-02-28T07:07:45.769Z,57.81
2019-02-28T07:10:14.960Z,57.81
2019-02-28T07:12:42.558Z,58.25
2019-02-28T07:15:13.114Z,58.57
2019-02-28T07:17:42.738Z,57.96
2019-02-28T07:20:16.033Z,58.27
2019-02-28T07:22:43.879Z,57.80
2019-02-28T07:25:12.607Z,57.80
2019-02-28T07:27:40.600Z,57.80
2019-02-28T07:30:08.433Z,57.53
2019-02-28T07:32:35.994Z,57.61
2019-02-28T07:35:03.587Z,56.92
2019-02-28T07:37:33.026Z,57.13
2019-02-28T07:40:07.651Z,56.68
2019-02-28T07:42:37.561Z,56.68
2019-02-28T07:45:06.125Z,56.57
2019-02-28T07:47:34.702Z,56.57
2019-02-28T07:50:07.718Z,56.50
2019-02-28T07:52:34.542Z,56.74
2019-02-28T07:55:02.137Z,56.63
2019-02-28T07:57:29.926Z,56.63
2019-02-28T08:00:00.051Z,56.47
2019-02-28T08:02:27.648Z,56.30
2019-02-28T08:04:55.799Z,56.27
2019-02-28T08:07:23.427Z,56.16
2019-02-28T08:09:50.933Z,56.01
2019-02-28T08:12:19.062Z,56.01
2019-02-28T08:14:48.674Z,55.71
2019-02-28T08:17:16.291Z,55.21
2019-02-28T08:19:45.216Z,55.21
2019-02-28T08:22:12.767Z,55.03
2019-02-28T08:24:40.293Z,54.77
2019-02-28T08:27:08.051Z,54.54
2019-02-28T08:29:35.621Z,54.54
2019-02-28T08:32:06.740Z,54.80
2019-02-28T08:34:32.660Z,54.80
2019-02-28T08:37:01.287Z,54.68
2019-02-28T08:39:31.208Z,54.68
2019-02-28T08:42:04.576Z,54.54
2019-02-28T08:44:28.273Z,54.38
2019-02-28T08:46:56.558Z,54.48
2019-02-28T08:49:27.054Z,54.48
2019-02-28T08:51:54.559Z,54.17
2019-02-28T08:54:27.326Z,53.71
2019-02-28T08:56:55.659Z,53.71
2019-02-28T08:59:23.286Z,53.32
2019-02-28T09:01:53.609Z,53.24
2019-02-28T09:04:21.517Z,52.65
2019-02-28T09:06:51.872Z,52.22
2019-02-28T09:09:19.873Z,52.22
2019-02-28T09:11:47.739Z,51.77
2019-02-28T09:14:17.812Z,51.65
2019-02-28T09:16:46.643Z,51.65
2019-02-28T09:19:17.524Z,51.55
2019-02-28T09:21:52.883Z,51.65
2019-02-28T09:24:20.219Z,51.69
2019-02-28T09:26:48.043Z,51.75
2019-02-28T09:29:18.327Z,51.86
2019-02-28T09:31:44.822Z,51.98
2019-02-28T09:34:14.852Z,52.53
2019-02-28T09:36:42.370Z,52.53
2019-02-28T09:39:12.720Z,52.52
2019-02-28T09:41:41.315Z,52.46
2019-02-28T09:44:14.721Z,52.09
2019-02-28T09:46:42.281Z,51.97
2019-02-28T09:49:12.962Z,51.97
2019-02-28T09:51:39.401Z,51.88
2019-02-28T09:54:06.939Z,52.34
2019-02-28T09:56:34.807Z,52.26
2019-02-28T09:59:03.241Z,52.10
2019-02-28T10:01:31.351Z,52.20
2019-02-28T10:04:03.884Z,52.20
2019-02-28T10:06:33.181Z,51.40
2019-02-28T10:09:00.731Z,50.80
2019-02-28T10:11:32.598Z,50.25
2019-02-28T10:14:00.136Z,48.48
2019-02-28T10:16:27.687Z,48.48
2019-02-28T10:18:55.511Z,46.82
2019-02-28T10:21:29.301Z,46.82
2019-02-28T10:23:59.134Z,46.49
2019-02-28T10:26:28.107Z,47.02
2019-02-28T10:28:55.707Z,46.82
2019-02-28T10:31:35.237Z,46.31
2019-02-28T10:33:54.730Z,46.31
2019-02-28T10:36:22.310Z,46.01
2019-02-28T10:38:50.112Z,45.81
2019-02-28T10:41:18.324Z,45.56
2019-02-28T10:43:51.447Z,46.05
2019-02-28T10:46:27.545Z,47.02
2019-02-28T10:49:00.934Z,47.02
2019-02-28T10:51:28.510Z,48.42
2019-02-28T10:54:01.969Z,48.33
2019-02-28T10:56:32.014Z,48.33
2019-02-28T10:58:58.837Z,46.75
2019-02-28T11:01:26.453Z,44.17
2019-02-28T11:04:00.220Z,44.17
2019-02-28T11:06:28.287Z,42.31
2019-02-28T11:08:55.868Z,41.01
2019-02-28T11:11:23.409Z,40.02
2019-02-28T11:13:51.291Z,39.56
2019-02-28T11:16:23.588Z,39.10
2019-02-28T11:18:53.544Z,39.27
2019-02-28T11:21:21.621Z,39.27
2019-02-28T11:23:50.823Z,38.95
2019-02-28T11:26:18.407Z,39.13
2019-02-28T11:28:47.319Z,39.67
2019-02-28T11:31:16.356Z,40.63
2019-02-28T11:33:50.354Z,40.89
2019-02-28T11:36:19.226Z,41.19
2019-02-28T11:38:46.853Z,41.51
2019-02-28T11:41:15.477Z,41.76
2019-02-28T11:43:46.802Z,41.87
2019-02-28T11:46:14.345Z,43.06
2019-02-28T11:48:42.972Z,43.06
2019-02-28T11:51:10.833Z,43.62
2019-02-28T11:53:40.352Z,45.48
2019-02-28T11:56:07.640Z,45.48
2019-02-28T11:58:35.436Z,46.23
2019-02-28T12:01:03.185Z,46.74
2019-02-28T12:03:31.918Z,47.49
2019-02-28T12:06:00.108Z,47.49
2019-02-28T12:08:27.654Z,47.86
2019-02-28T12:10:58.424Z,47.95
2019-02-28T12:13:25.155Z,47.93
2019-02-28T12:15:54.406Z,48.01
2019-02-28T12:18:23.475Z,48.01
2019-02-28T12:20:52.418Z,47.72
2019-02-28T12:23:22.975Z,47.22
2019-02-28T12:25:49.159Z,46.65
2019-02-28T12:28:17.066Z,46.14
2019-02-28T12:30:46.668Z,45.03
2019-02-28T12:33:15.416Z,43.71
2019-02-28T12:35:43.767Z,43.97
2019-02-28T12:38:11.392Z,43.97
2019-02-28T12:40:42.536Z,43.38
2019-02-28T12:43:09.581Z,42.51
2019-02-28T12:45:37.539Z,42.51
2019-02-28T12:48:05.152Z,41.77
2019-02-28T12:50:35.867Z,41.77
2019-02-28T12:53:03.433Z,41.09
2019-02-28T12:55:30.990Z,41.09
2019-02-28T12:58:01.679Z,40.63
2019-02-28T13:00:30.898Z,40.55
2019-02-28T13:02:58.450Z,40.31
2019-02-28T13:05:26.333Z,40.44
2019-02-28T13:07:54.268Z,40.73
2019-02-28T13:10:27.978Z,40.88
2019-02-28T13:12:53.439Z,41.23
2019-02-28T13:15:24.175Z,41.26
2019-02-28T13:17:53.860Z,41.26
2019-02-28T13:20:21.828Z,41.73
2019-02-28T13:22:49.453Z,42.16
2019-02-28T13:25:19.368Z,42.16
2019-02-28T13:27:46.560Z,42.52
2019-02-28T13:30:17.174Z,42.52
2019-02-28T13:32:45.533Z,43.32
2019-02-28T13:35:14.143Z,43.78
2019-02-28T13:37:42.253Z,44.06
2019-02-28T13:40:13.081Z,44.23
2019-02-28T13:42:42.276Z,44.38
2019-02-28T13:45:14.842Z,44.50
2019-02-28T13:47:46.304Z,44.64
2019-02-28T13:50:12.602Z,44.64
2019-02-28T13:52:44.056Z,44.67
2019-02-28T13:55:14.305Z,44.76
2019-02-28T13:57:46.456Z,44.93
2019-02-28T14:00:13.494Z,45.42
2019-02-28T14:02:46.482Z,45.42
2019-02-28T14:05:17.634Z,45.61
2019-02-28T14:07:50.925Z,45.72
2019-02-28T14:10:18.904Z,46.14
2019-02-28T14:12:46.812Z,46.66
2019-02-28T14:15:15.485Z,46.88
2019-02-28T14:17:43.628Z,47.18
2019-02-28T14:20:30.027Z,47.24
2019-02-28T14:23:00.269Z,47.38
2019-02-28T14:25:29.126Z,47.38
2019-02-28T14:28:00.146Z,47.11
2019-02-28T14:33:01.055Z,46.20
2019-02-28T14:35:47.437Z,46.64
2019-02-28T14:38:15.116Z,46.71
2019-02-28T14:40:42.923Z,47.13
2019-02-28T14:43:10.497Z,47.88
2019-02-28T14:45:39.259Z,47.88
2019-02-28T14:48:26.151Z,48.32
2019-02-28T14:50:55.299Z,48.80
2019-02-28T14:53:23.188Z,49.42
2019-02-28T14:55:53.020Z,50.49
2019-02-28T14:58:22.319Z,52.15
2019-02-28T15:00:50.346Z,52.15
2019-02-28T15:03:17.905Z,53.11
2019-02-28T15:06:09.636Z,53.71
2019-02-28T15:08:37.970Z,54.32
2019-02-28T15:11:06.472Z,54.98
2019-02-28T15:13:53.513Z,56.08
2019-02-28T15:16:41.371Z,56.81
2019-02-28T15:19:09.297Z,58.59
2019-02-28T15:21:49.257Z,58.59
2019-02-28T15:24:08.714Z,59.09
2019-02-28T15:26:35.678Z,59.33
2019-02-28T15:29:36.053Z,59.57
2019-02-28T15:31:51.620Z,59.88
2019-02-28T15:36:55.583Z,60.21
2019-02-28T15:39:44.289Z,60.21
2019-02-28T15:42:14.258Z,60.06
2019-02-28T15:45:03.922Z,59.97
2019-02-28T15:50:35.056Z,60.28
2019-02-28T15:53:02.706Z,60.28
2019-02-28T15:55:30.574Z,60.27
2019-02-28T15:57:58.476Z,60.50
2019-02-28T16:03:13.542Z,60.42
2019-02-28T16:05:44.081Z,60.61
2019-02-28T16:08:11.541Z,60.67
2019-02-28T16:10:57.870Z,60.87
2019-02-28T16:13:25.974Z,60.66
2019-02-28T16:16:16.960Z,60.99
2019-02-28T16:18:47.278Z,60.99
2019-02-28T16:21:32.680Z,60.86
2019-02-28T16:24:02.057Z,60.78
2019-02-28T16:29:30.338Z,60.70
2019-02-28T16:32:04.161Z,60.73
2019-02-28T16:34:32.342Z,60.30
2019-02-28T16:39:49.096Z,60.69
2019-02-28T16:42:36.425Z,60.71
2019-02-28T16:47:59.209Z,60.62
2019-02-28T16:50:40.446Z,60.62
2019-02-28T16:53:16.289Z,60.81
2019-02-28T16:55:45.753Z,60.82
2019-02-28T16:58:18.601Z,60.73
2019-02-28T17:03:19.657Z,60.68
2019-02-28T17:05:47.387Z,60.85
2019-02-28T17:08:15.538Z,60.85
2019-02-28T17:11:03.049Z,60.82
2019-02-28T17:16:33.663Z,61.12
2019-02-28T17:22:05.014Z,60.91
2019-02-28T17:24:32.570Z,60.91
2019-02-28T17:27:18.978Z,60.84
2019-02-28T17:30:05.292Z,60.96
2019-02-28T17:32:36.025Z,61.12
2019-02-28T17:35:03.628Z,61.12
2019-02-28T17:37:31.199Z,61.32
2019-02-28T17:40:04.166Z,61.32
2019-02-28T17:42:33.454Z,61.17
2019-02-28T17:45:01.372Z,61.13
2019-02-28T17:47:29.400Z,61.14
2019-02-28T17:49:56.871Z,60.78
2019-02-28T17:52:24.746Z,60.78
2019-02-28T17:54:54.247Z,60.94
2019-02-28T17:57:23.874Z,61.18
2019-02-28T17:59:54.157Z,61.18
2019-02-28T18:02:21.716Z,61.18
2019-02-28T18:04:49.471Z,61.23
2019-02-28T18:07:19.978Z,61.23
2019-02-28T18:09:48.082Z,61.37
2019-02-28T18:12:20.964Z,61.28
2019-02-28T18:14:50.701Z,61.28
2019-02-28T18:17:18.360Z,61.44
2019-02-28T18:19:46.180Z,61.36
2019-02-28T18:22:16.901Z,61.40
2019-02-28T18:24:51.633Z,61.58
2019-02-28T18:27:22.611Z,61.53
2019-02-28T18:29:55.163Z,61.36
2019-02-28T18:32:25.715Z,61.36
2019-02-28T18:34:57.145Z,61.73
2019-02-28T18:37:24.649Z,61.62
2019-02-28T18:39:52.926Z,61.62
2019-02-28T18:42:22.431Z,61.41
2019-02-28T18:44:49.932Z,61.32
2019-02-28T18:47:19.474Z,61.19
2019-02-28T18:49:47.258Z,61.19
2019-02-28T18:52:20.550Z,61.44
2019-02-28T18:54:48.158Z,61.43
2019-02-28T18:57:16.000Z,61.93
2019-02-28T18:59:45.393Z,61.93
2019-02-28T19:02:12.967Z,61.66
2019-02-28T19:04:40.790Z,61.66
2019-02-28T19:07:08.331Z,61.66
2019-02-28T19:09:36.246Z,61.92
2019-02-28T19:12:08.072Z,62.15
2019-02-28T19:14:35.681Z,62.15
2019-02-28T19:17:03.270Z,62.24
2019-02-28T19:19:35.843Z,62.28
2019-02-28T19:22:03.297Z,62.28
2019-02-28T19:24:30.901Z,62.43
2019-02-28T19:26:58.778Z,62.42
2019-02-28T19:29:29.042Z,62.77
2019-02-28T19:31:57.022Z,62.77
2019-02-28T19:34:26.836Z,62.66
2019-02-28T19:36:54.077Z,62.64
2019-02-28T19:39:21.707Z,62.72
2019-02-28T19:41:49.636Z,63.01
2019-02-28T19:44:17.188Z,63.10
2019-02-28T19:46:44.816Z,63.22
2019-02-28T19:49:12.644Z,64.17
2019-02-28T19:51:40.474Z,64.17
2019-02-28T19:54:21.969Z,63.80
2019-02-28T19:56:49.901Z,63.93
2019-02-28T19:59:17.378Z,63.33
2019-02-28T20:01:45.477Z,63.33
2019-02-28T20:04:15.813Z,63.78
2019-02-28T20:06:45.832Z,63.78
2019-02-28T20:09:13.369Z,63.63
2019-02-28T20:11:42.795Z,63.68
2019-02-28T20:14:10.724Z,63.40
2019-02-28T20:16:38.163Z,63.40
2019-02-28T20:19:08.657Z,63.62
2019-02-28T20:21:36.152Z,63.65
2019-02-28T20:24:09.627Z,63.38
2019-02-28T20:26:37.418Z,63.38
2019-02-28T20:29:05.052Z,63.82
2019-02-28T20:31:32.913Z,64.02
2019-02-28T20:34:00.780Z,63.87
2019-02-28T20:36:32.804Z,64.16
2019-02-28T20:39:00.424Z,64.16
2019-02-28T20:41:28.288Z,63.92
2019-02-28T20:43:58.959Z,63.98
2019-02-28T20:46:26.812Z,64.09
2019-02-28T20:48:54.626Z,64.12
2019-02-28T20:51:22.214Z,64.18
2019-02-28T20:53:49.760Z,64.18
2019-02-28T20:56:19.154Z,64.34
2019-02-28T20:58:59.991Z,64.34
2019-02-28T21:01:25.128Z,64.40
2019-02-28T21:03:52.979Z,64.40
2019-02-28T21:06:20.569Z,64.40
2019-02-28T21:08:50.294Z,64.63
2019-02-28T21:11:23.133Z,65.17
2019-02-28T21:13:53.199Z,64.97
2019-02-28T21:16:23.889Z,65.40
2019-02-28T21:18:51.490Z,65.55
2019-02-28T21:21:19.075Z,65.54
2019-02-28T21:23:46.933Z,65.59
2019-02-28T21:26:14.493Z,65.52
2019-02-28T21:28:42.388Z,65.52
2019-02-28T21:31:10.258Z,65.84
2019-02-28T21:33:37.785Z,65.78
2019-02-28T21:36:07.472Z,65.78
2019-02-28T21:38:35.265Z,65.69
2019-02-28T21:41:02.884Z,65.81
2019-02-28T21:43:30.473Z,65.81
2019-02-28T21:46:30.980Z,65.78
2019-02-28T21:49:07.566Z,66.04
2019-02-28T21:51:53.901Z,65.78
2019-02-28T21:54:40.287Z,65.91
2019-02-28T21:57:26.667Z,65.91
2019-02-28T22:00:13.076Z,66.52
2019-02-28T22:02:59.402Z,66.52
2019-02-28T22:05:38.801Z,67.05
2019-02-28T22:08:15.084Z,67.05
2019-02-28T22:10:42.702Z,67.36
2019-02-28T22:13:10.238Z,67.36
2019-02-28T22:15:56.658Z,68.26
2019-02-28T22:18:55.133Z,69.23
2019-02-28T22:21:45.128Z,69.23
2019-02-28T22:24:00.367Z,69.06
2019-02-28T22:26:47.052Z,69.34
2019-02-28T22:29:14.559Z,69.68
2019-02-28T22:32:01.136Z,69.68
2019-02-28T22:34:47.666Z,69.93
2019-02-28T22:37:33.966Z,70.11
2019-02-28T22:40:01.674Z,70.32
2019-02-28T22:42:48.471Z,70.76
2019-02-28T22:45:16.076Z,70.76
2019-02-28T22:47:43.760Z,71.61
2019-02-28T22:50:30.113Z,71.31
2019-02-28T22:53:16.546Z,71.50
2019-02-28T22:55:44.214Z,71.36
2019-02-28T22:58:30.663Z,71.37
2019-02-28T23:01:16.985Z,71.37
2019-02-28T23:06:19.768Z,71.05
2019-02-28T23:08:49.351Z,71.34
2019-02-28T23:11:17.400Z,71.34
2019-02-28T23:13:45.741Z,71.16
2019-02-28T23:16:13.337Z,70.96
2019-02-28T23:18:59.661Z,70.92
2019-02-28T23:21:27.308Z,70.92
2019-02-28T23:23:55.370Z,70.53
2019-02-28T23:29:03.132Z,70.57
2019-02-28T23:31:32.488Z,70.57
2019-02-28T23:34:18.897Z,71.29
2019-02-28T23:36:46.346Z,71.29
2019-02-28T23:39:32.705Z,71.01
2019-02-28T23:42:00.827Z,71.04
2019-02-28T23:44:47.174Z,71.01
2019-02-28T23:47:15.228Z,71.01
2019-02-28T23:49:42.840Z,70.79
2019-02-28T23:54:46.534Z,70.33
2019-02-28T23:57:32.985Z,70.33
